createdAt,value
2018-07-16T00:00:18.871Z,6.60
2018-07-16T00:02:47.424Z,6.47
2018-07-16T00:05:15.890Z,6.30
2018-07-16T00:07:44.728Z,6.37
2018-07-16T00:10:13.184Z,6.63
2018-07-16T00:12:41.722Z,6.20
2018-07-16T00:15:10.204Z,6.80
2018-07-16T00:17:38.687Z,6.70
2018-07-16T00:20:07.879Z,6.80
2018-07-16T00:22:36.380Z,6.13
2018-07-16T00:25:04.906Z,6.53
2018-07-16T00:27:33.362Z,6.00
2018-07-16T00:30:01.878Z,5.80
2018-07-16T00:32:30.364Z,6.37
2018-07-16T00:34:59.114Z,5.53
2018-07-16T00:37:27.579Z,5.77
2018-07-16T00:39:56.053Z,5.90
2018-07-16T00:42:24.510Z,5.73
2018-07-16T00:44:52.931Z,6.00
2018-07-16T00:47:21.376Z,5.93
2018-07-16T00:49:49.843Z,6.10
2018-07-16T00:52:18.571Z,7.20
2018-07-16T00:54:47.540Z,6.30
2018-07-16T00:57:16.015Z,6.60
2018-07-16T00:59:44.453Z,7.00
2018-07-16T01:02:12.921Z,7.07
2018-07-16T01:04:41.420Z,6.73
2018-07-16T01:07:10.154Z,6.57
2018-07-16T01:09:38.851Z,7.17
2018-07-16T01:12:07.705Z,6.87
2018-07-16T01:14:36.187Z,6.33
2018-07-16T01:17:05.094Z,6.13
2018-07-16T01:19:33.579Z,6.17
2018-07-16T01:22:02.030Z,6.53
2018-07-16T01:24:30.488Z,6.43
2018-07-16T01:26:58.943Z,6.67
2018-07-16T01:29:27.390Z,6.40
2018-07-16T01:31:55.831Z,6.57
2018-07-16T01:34:24.272Z,5.83
2018-07-16T01:36:52.709Z,6.07
2018-07-16T01:39:21.184Z,6.13
2018-07-16T01:41:50.669Z,6.53
2018-07-16T01:44:19.113Z,6.10
2018-07-16T01:46:47.793Z,5.93
2018-07-16T01:49:16.278Z,6.80
2018-07-16T01:51:44.755Z,5.47
2018-07-16T01:54:13.218Z,5.13
2018-07-16T01:56:41.950Z,5.60
2018-07-16T01:59:10.462Z,7.40
2018-07-16T02:01:38.930Z,5.80
2018-07-16T02:04:07.403Z,5.80
2018-07-16T02:06:35.876Z,5.90
2018-07-16T02:09:04.725Z,5.80
2018-07-16T02:11:33.158Z,6.07
2018-07-16T02:14:01.638Z,5.27
2018-07-16T02:16:30.120Z,5.60
2018-07-16T02:18:58.605Z,5.13
2018-07-16T02:21:27.052Z,6.37
2018-07-16T02:23:55.522Z,5.87
2018-07-16T02:26:24.681Z,6.17
2018-07-16T02:28:53.483Z,6.10
2018-07-16T02:31:21.944Z,5.83
2018-07-16T02:33:50.414Z,5.23
2018-07-16T02:36:18.884Z,6.07
2018-07-16T02:38:47.390Z,5.93
2018-07-16T02:41:15.836Z,5.70
2018-07-16T02:43:44.331Z,5.73
2018-07-16T02:46:12.762Z,6.17
2018-07-16T02:48:41.252Z,5.70
2018-07-16T02:51:09.720Z,6.67
2018-07-16T02:53:38.194Z,5.30
2018-07-16T02:56:06.891Z,5.37
2018-07-16T02:58:35.429Z,6.80
2018-07-16T03:01:03.915Z,6.63
2018-07-16T03:03:32.733Z,6.60
2018-07-16T03:06:01.522Z,7.27
2018-07-16T03:08:29.979Z,6.57
2018-07-16T03:10:58.682Z,6.23
2018-07-16T03:13:27.181Z,6.20
2018-07-16T03:15:55.646Z,6.43
2018-07-16T03:18:24.371Z,6.27
2018-07-16T03:20:52.812Z,6.50
2018-07-16T03:23:21.287Z,6.20
2018-07-16T03:25:49.759Z,7.33
2018-07-16T03:28:18.228Z,6.40
2018-07-16T03:30:46.704Z,6.93
2018-07-16T03:33:15.184Z,6.13
2018-07-16T03:35:44.288Z,6.93
2018-07-16T03:38:12.709Z,6.63
2018-07-16T03:40:41.170Z,7.17
2018-07-16T03:43:09.620Z,6.60
2018-07-16T03:45:38.131Z,5.83
2018-07-16T03:48:06.720Z,7.20
2018-07-16T03:50:35.459Z,6.43
2018-07-16T03:53:04.174Z,6.50
2018-07-16T03:55:32.650Z,5.93
2018-07-16T03:58:01.104Z,6.17
2018-07-16T04:00:29.591Z,7.20
2018-07-16T04:02:58.013Z,6.40
2018-07-16T04:05:26.561Z,6.20
2018-07-16T04:07:54.999Z,6.57
2018-07-16T04:10:23.532Z,6.30
2018-07-16T04:12:51.999Z,7.50
2018-07-16T04:15:20.540Z,8.30
2018-07-16T04:17:49.338Z,7.00
2018-07-16T04:20:17.815Z,7.47
2018-07-16T04:22:46.289Z,7.20
2018-07-16T04:25:14.775Z,7.23
2018-07-16T04:27:43.273Z,7.10
2018-07-16T04:30:12.004Z,6.73
2018-07-16T04:32:40.441Z,6.73
2018-07-16T04:35:08.910Z,6.60
2018-07-16T04:37:37.341Z,6.83
2018-07-16T04:40:05.808Z,6.63
2018-07-16T04:42:34.266Z,6.60
2018-07-16T04:45:02.734Z,6.60
2018-07-16T04:47:31.179Z,6.40
2018-07-16T04:49:59.651Z,7.13
2018-07-16T04:52:28.071Z,6.70
2018-07-16T04:54:56.829Z,6.50
2018-07-16T04:57:25.271Z,6.80
2018-07-16T04:59:53.981Z,6.07
2018-07-16T05:02:22.630Z,6.30
2018-07-16T05:04:51.094Z,5.73
2018-07-16T05:07:19.552Z,5.93
2018-07-16T05:09:48.410Z,6.50
2018-07-16T05:12:16.900Z,7.20
2018-07-16T05:14:45.369Z,5.70
2018-07-16T05:17:14.145Z,6.60
2018-07-16T05:19:42.626Z,6.47
2018-07-16T05:22:11.455Z,7.10
2018-07-16T05:24:39.997Z,6.87
2018-07-16T05:27:08.470Z,7.10
2018-07-16T05:29:36.988Z,6.60
2018-07-16T05:32:05.529Z,6.20
2018-07-16T05:34:34.002Z,7.07
2018-07-16T05:37:02.530Z,7.47
2018-07-16T05:39:31.003Z,6.33
2018-07-16T05:41:59.522Z,7.20
2018-07-16T05:44:28.640Z,6.93
2018-07-16T05:46:57.424Z,7.37
2018-07-16T05:49:26.153Z,7.80
2018-07-16T05:51:55.030Z,7.03
2018-07-16T05:54:23.555Z,6.83
2018-07-16T05:56:52.038Z,6.97
2018-07-16T05:59:20.554Z,7.10
2018-07-16T06:01:49.099Z,7.17
2018-07-16T06:04:17.590Z,7.33
2018-07-16T06:06:46.074Z,7.30
2018-07-16T06:09:14.652Z,7.37
2018-07-16T06:11:43.137Z,6.77
2018-07-16T06:14:11.617Z,7.17
2018-07-16T06:16:40.439Z,6.77
2018-07-16T06:19:08.899Z,7.10
2018-07-16T06:21:37.462Z,6.40
2018-07-16T06:24:06.368Z,7.30
2018-07-16T06:26:35.095Z,7.20
2018-07-16T06:29:03.665Z,7.30
2018-07-16T06:31:32.157Z,7.27
2018-07-16T06:34:00.644Z,6.93
2018-07-16T06:36:29.550Z,6.87
2018-07-16T06:38:58.060Z,6.77
2018-07-16T06:41:26.985Z,6.17
2018-07-16T06:43:55.386Z,6.40
2018-07-16T06:46:23.912Z,6.27
2018-07-16T06:48:52.634Z,7.17
2018-07-16T06:51:21.168Z,6.23
2018-07-16T06:53:49.929Z,6.53
2018-07-16T06:56:18.860Z,7.17
2018-07-16T06:58:47.657Z,7.60
2018-07-16T07:01:16.176Z,7.20
2018-07-16T07:03:44.691Z,7.40
2018-07-16T07:06:13.202Z,6.83
2018-07-16T07:08:41.923Z,7.07
2018-07-16T07:11:10.749Z,7.90
2018-07-16T07:13:39.243Z,7.40
2018-07-16T07:16:07.878Z,8.10
2018-07-16T07:18:36.964Z,7.17
2018-07-16T07:21:05.511Z,7.30
2018-07-16T07:23:34.322Z,7.10
2018-07-16T07:26:03.120Z,7.27
2018-07-16T07:28:31.933Z,8.10
2018-07-16T07:31:00.757Z,7.00
2018-07-16T07:33:29.214Z,7.43
2018-07-16T07:35:57.730Z,8.57
2018-07-16T07:38:26.459Z,8.00
2018-07-16T07:40:55.246Z,7.60
2018-07-16T07:43:23.709Z,7.83
2018-07-16T07:45:52.495Z,8.93
2018-07-16T07:48:21.318Z,8.80
2018-07-16T07:50:50.211Z,7.73
2018-07-16T07:53:19.242Z,8.80
2018-07-16T07:55:48.340Z,8.27
2018-07-16T07:58:16.769Z,9.00
2018-07-16T08:00:45.271Z,8.03
2018-07-16T08:03:13.847Z,8.00
2018-07-16T08:05:46.567Z,7.60
2018-07-16T08:08:15.135Z,7.13
2018-07-16T08:10:43.634Z,7.03
2018-07-16T08:13:12.131Z,7.40
2018-07-16T08:15:40.948Z,7.40
2018-07-16T08:18:09.905Z,6.60
2018-07-16T08:20:38.387Z,7.23
2018-07-16T08:23:07.195Z,7.27
2018-07-16T08:25:35.701Z,7.30
2018-07-16T08:28:04.247Z,7.30
2018-07-16T08:30:32.714Z,6.37
2018-07-16T08:33:01.450Z,6.93
2018-07-16T08:35:29.938Z,5.73
2018-07-16T08:37:58.757Z,6.10
2018-07-16T08:40:27.235Z,6.93
2018-07-16T08:42:55.711Z,5.50
2018-07-16T08:45:24.502Z,6.50
2018-07-16T08:47:53.031Z,6.57
2018-07-16T08:50:21.481Z,5.83
2018-07-16T08:52:50.038Z,6.90
2018-07-16T08:55:18.466Z,6.10
2018-07-16T08:57:46.972Z,5.80
2018-07-16T09:00:15.446Z,5.80
2018-07-16T09:02:43.890Z,6.37
2018-07-16T09:05:12.391Z,6.00
2018-07-16T09:07:41.068Z,5.30
2018-07-16T09:10:09.498Z,5.37
2018-07-16T09:12:37.962Z,6.70
2018-07-16T09:15:06.425Z,6.87
2018-07-16T09:17:34.914Z,7.30
2018-07-16T09:20:03.416Z,8.23
2018-07-16T09:22:31.870Z,9.07
2018-07-16T09:25:00.352Z,9.07
2018-07-16T09:27:28.826Z,8.07
2018-07-16T09:29:57.270Z,6.57
2018-07-16T09:32:25.752Z,7.57
2018-07-16T09:34:54.501Z,8.70
2018-07-16T09:37:23.006Z,6.33
2018-07-16T09:39:51.839Z,7.00
2018-07-16T09:42:20.591Z,8.23
2018-07-16T09:44:49.270Z,7.87
2018-07-16T09:47:17.755Z,7.87
2018-07-16T09:49:46.238Z,7.30
2018-07-16T09:52:14.706Z,9.00
2018-07-16T09:54:43.157Z,8.10
2018-07-16T09:57:11.652Z,8.43
2018-07-16T09:59:40.354Z,8.00
2018-07-16T10:02:14.344Z,7.90
2018-07-16T10:04:42.778Z,6.70
2018-07-16T10:07:11.486Z,7.00
2018-07-16T10:09:39.924Z,7.40
2018-07-16T10:12:08.754Z,6.70
2018-07-16T10:14:37.207Z,5.67
2018-07-16T10:17:05.916Z,5.80
2018-07-16T10:19:34.410Z,5.57
2018-07-16T10:22:02.899Z,5.33
2018-07-16T10:24:31.348Z,4.10
2018-07-16T10:26:59.889Z,4.30
2018-07-16T10:29:28.392Z,4.50
2018-07-16T10:31:57.224Z,4.87
2018-07-16T10:34:25.922Z,3.80
2018-07-16T10:36:54.386Z,3.57
2018-07-16T10:39:23.584Z,3.83
2018-07-16T10:41:52.066Z,3.40
2018-07-16T10:44:20.598Z,3.07
2018-07-16T10:46:48.754Z,4.63
2018-07-16T10:49:17.224Z,4.30
2018-07-16T10:51:46.039Z,3.90
2018-07-16T10:54:14.512Z,3.80
2018-07-16T10:56:43.034Z,4.40
2018-07-16T10:59:12.062Z,3.30
2018-07-16T11:01:40.558Z,3.60
2018-07-16T11:04:09.032Z,3.70
2018-07-16T11:06:37.491Z,3.40
2018-07-16T11:09:06.550Z,3.13
2018-07-16T11:11:35.018Z,3.40
2018-07-16T11:14:03.514Z,3.23
2018-07-16T11:16:32.006Z,2.33
2018-07-16T11:19:00.761Z,2.80
2018-07-16T11:21:29.211Z,3.50
2018-07-16T11:23:57.730Z,3.47
2018-07-16T11:26:26.205Z,2.97
2018-07-16T11:28:54.723Z,3.00
2018-07-16T11:31:23.194Z,2.80
2018-07-16T11:33:51.679Z,3.20
2018-07-16T11:36:20.130Z,3.00
2018-07-16T11:38:48.616Z,3.20
2018-07-16T11:41:17.070Z,3.30
2018-07-16T11:43:45.539Z,2.93
2018-07-16T11:46:14.196Z,3.23
2018-07-16T11:48:42.690Z,3.40
2018-07-16T11:51:11.155Z,2.73
2018-07-16T11:53:39.942Z,2.90
2018-07-16T11:56:08.443Z,2.90
2018-07-16T11:58:36.946Z,3.47
2018-07-16T12:01:05.408Z,3.07
2018-07-16T12:03:33.981Z,2.10
2018-07-16T12:06:06.605Z,2.30
2018-07-16T12:08:35.769Z,2.40
2018-07-16T12:11:04.331Z,2.57
2018-07-16T12:13:32.825Z,2.53
2018-07-16T12:16:01.292Z,2.10
2018-07-16T12:18:29.779Z,2.73
2018-07-16T12:20:58.807Z,2.67
2018-07-16T12:23:27.490Z,2.50
2018-07-16T12:25:56.447Z,2.50
2018-07-16T12:28:24.882Z,2.63
2018-07-16T12:30:53.308Z,1.97
2018-07-16T12:33:21.759Z,2.63
2018-07-16T12:35:50.597Z,2.60
2018-07-16T12:38:19.218Z,2.87
2018-07-16T12:40:47.734Z,2.70
2018-07-16T12:43:16.471Z,2.30
2018-07-16T12:45:45.202Z,2.60
2018-07-16T12:48:13.727Z,2.70
2018-07-16T12:50:42.138Z,3.00
2018-07-16T12:53:10.595Z,2.83
2018-07-16T12:55:39.024Z,2.70
2018-07-16T12:58:07.483Z,2.60
2018-07-16T13:00:35.908Z,2.93
2018-07-16T13:03:04.822Z,2.43
2018-07-16T13:05:33.618Z,2.63
2018-07-16T13:08:02.058Z,2.57
2018-07-16T13:10:30.574Z,2.70
2018-07-16T13:12:59.761Z,2.80
2018-07-16T13:15:28.238Z,2.70
2018-07-16T13:17:56.917Z,2.50
2018-07-16T13:20:25.366Z,2.77
2018-07-16T13:22:53.831Z,3.03
2018-07-16T13:25:22.281Z,2.67
2018-07-16T13:27:50.758Z,2.97
2018-07-16T13:30:19.344Z,2.50
2018-07-16T13:32:48.459Z,4.33
2018-07-16T13:35:17.214Z,2.83
2018-07-16T13:37:46.001Z,2.70
2018-07-16T13:40:14.730Z,3.27
2018-07-16T13:42:43.518Z,6.00
2018-07-16T13:45:12.360Z,2.90
2018-07-16T13:47:40.802Z,3.10
2018-07-16T13:50:09.263Z,3.03
2018-07-16T13:52:37.439Z,3.40
2018-07-16T13:55:05.867Z,3.60
2018-07-16T13:57:34.298Z,3.13
2018-07-16T14:00:02.831Z,9.30
2018-07-16T14:02:31.538Z,18.33
2018-07-16T14:05:00.023Z,9.20
2018-07-16T14:07:28.475Z,4.53
2018-07-16T14:09:56.943Z,2.83
2018-07-16T14:12:25.455Z,2.98
2018-07-16T14:14:53.895Z,3.10
2018-07-16T14:23:37.180Z,2.80
2018-07-16T14:26:05.924Z,3.03
2018-07-16T14:28:34.394Z,2.40
2018-07-16T14:31:02.932Z,2.87
2018-07-16T14:33:31.779Z,2.47
2018-07-16T14:36:00.222Z,2.50
2018-07-16T14:38:28.710Z,2.90
2018-07-16T14:40:57.427Z,2.77
2018-07-16T14:43:26.009Z,2.30
2018-07-16T14:45:54.690Z,2.67
2018-07-16T14:48:23.462Z,2.27
2018-07-16T14:50:51.887Z,2.93
2018-07-16T14:53:20.408Z,2.50
2018-07-16T14:55:48.861Z,2.60
2018-07-16T14:58:17.322Z,2.60
2018-07-16T15:00:45.769Z,2.73
2018-07-16T15:03:14.557Z,2.70
2018-07-16T15:05:43.150Z,2.20
2018-07-16T15:08:11.619Z,2.03
2018-07-16T15:10:40.537Z,2.40
2018-07-16T15:13:08.999Z,2.20
2018-07-16T15:15:37.428Z,2.40
2018-07-16T15:18:06.270Z,2.30
2018-07-16T15:20:34.903Z,2.10
2018-07-16T15:23:03.402Z,2.40
2018-07-16T15:25:31.898Z,2.33
2018-07-16T15:28:01.069Z,2.30
2018-07-16T15:30:29.827Z,2.60
2018-07-16T15:32:58.931Z,2.63
2018-07-16T15:35:27.358Z,2.27
2018-07-16T15:37:55.922Z,2.77
2018-07-16T15:40:24.483Z,2.37
2018-07-16T15:42:52.926Z,2.20
2018-07-16T15:45:21.438Z,2.23
2018-07-16T15:47:49.914Z,2.47
2018-07-16T15:50:18.701Z,2.37
2018-07-16T15:52:47.192Z,2.23
2018-07-16T15:55:16.282Z,1.97
2018-07-16T15:57:44.834Z,2.83
2018-07-16T16:00:13.643Z,2.30
2018-07-16T16:02:42.240Z,2.30
2018-07-16T16:05:10.920Z,2.37
2018-07-16T16:07:39.423Z,2.10
2018-07-16T16:10:07.931Z,2.10
2018-07-16T16:12:36.482Z,2.43
2018-07-16T16:15:05.027Z,1.97
2018-07-16T16:17:33.472Z,2.40
2018-07-16T16:20:02.080Z,2.30
2018-07-16T16:22:30.640Z,2.40
2018-07-16T16:24:59.136Z,2.50
2018-07-16T16:27:27.934Z,2.60
2018-07-16T16:29:56.447Z,2.67
2018-07-16T16:32:24.898Z,2.40
2018-07-16T16:34:54.053Z,2.40
2018-07-16T16:37:22.515Z,2.70
2018-07-16T16:39:51.337Z,2.30
2018-07-16T16:42:19.836Z,2.63
2018-07-16T16:44:48.356Z,2.50
2018-07-16T16:47:17.106Z,2.67
2018-07-16T16:49:45.895Z,2.40
2018-07-16T16:52:14.374Z,3.37
2018-07-16T16:54:43.032Z,3.50
2018-07-16T16:57:11.790Z,3.30
2018-07-16T16:59:40.274Z,3.50
2018-07-16T17:02:08.713Z,2.80
2018-07-16T17:04:37.638Z,2.90
2018-07-16T17:07:06.142Z,2.60
2018-07-16T17:09:34.897Z,2.80
2018-07-16T17:12:03.377Z,2.93
2018-07-16T17:14:31.914Z,2.97
2018-07-16T17:17:00.758Z,2.80
2018-07-16T17:19:29.264Z,3.17
2018-07-16T17:21:57.754Z,3.10
2018-07-16T17:24:26.297Z,2.87
2018-07-16T17:26:55.005Z,2.97
2018-07-16T17:29:23.760Z,3.00
2018-07-16T17:31:52.218Z,2.90
2018-07-16T17:34:21.070Z,2.80
2018-07-16T17:36:50.183Z,2.83
2018-07-16T17:39:18.654Z,2.80
2018-07-16T17:41:47.183Z,2.37
2018-07-16T17:44:15.618Z,2.73
2018-07-16T17:46:44.077Z,2.77
2018-07-16T17:49:12.541Z,3.10
2018-07-16T17:51:40.996Z,2.40
2018-07-16T17:54:09.589Z,2.57
2018-07-16T17:56:38.038Z,2.90
2018-07-16T17:59:06.699Z,2.80
2018-07-16T18:01:35.543Z,2.80
2018-07-16T18:04:04.071Z,2.93
2018-07-16T18:06:32.813Z,2.83
2018-07-16T18:09:01.527Z,2.43
2018-07-16T18:11:30.282Z,2.83
2018-07-16T18:13:58.701Z,3.63
2018-07-16T18:16:27.146Z,2.80
2018-07-16T18:18:55.561Z,3.20
2018-07-16T18:21:24.318Z,2.83
2018-07-16T18:23:53.022Z,2.90
2018-07-16T18:26:21.491Z,3.00
2018-07-16T18:28:49.925Z,3.13
2018-07-16T18:31:18.819Z,3.30
2018-07-16T18:33:47.327Z,2.60
2018-07-16T18:36:15.846Z,2.80
2018-07-16T18:38:44.372Z,3.37
2018-07-16T18:41:12.836Z,3.20
2018-07-16T18:43:41.415Z,2.70
2018-07-16T18:46:10.166Z,2.70
2018-07-16T18:48:38.288Z,2.50
2018-07-16T18:51:06.826Z,3.03
2018-07-16T18:53:35.266Z,3.10
2018-07-16T18:56:03.762Z,4.07
2018-07-16T18:58:33.150Z,4.37
2018-07-16T19:01:01.603Z,3.73
2018-07-16T19:03:30.125Z,3.50
2018-07-16T19:05:58.926Z,3.27
2018-07-16T19:08:27.487Z,3.10
2018-07-16T19:10:56.198Z,3.43
2018-07-16T19:13:24.703Z,3.03
2018-07-16T19:15:53.711Z,2.90
2018-07-16T19:18:22.223Z,2.97
2018-07-16T19:20:50.702Z,3.83
2018-07-16T19:23:18.865Z,3.60
2018-07-16T19:25:47.640Z,3.13
2018-07-16T19:28:16.385Z,3.10
2018-07-16T19:30:44.995Z,3.10
2018-07-16T19:33:13.739Z,3.43
2018-07-16T19:35:42.643Z,3.43
2018-07-16T19:38:11.015Z,3.77
2018-07-16T19:40:39.510Z,4.03
2018-07-16T19:43:08.219Z,3.40
2018-07-16T19:45:36.740Z,3.40
2018-07-16T19:48:06.110Z,3.57
2018-07-16T19:50:35.462Z,3.47
2018-07-16T19:53:04.145Z,3.30
2018-07-16T19:55:32.662Z,3.83
2018-07-16T19:58:01.154Z,2.80
2018-07-16T20:00:29.646Z,3.80
2018-07-16T20:02:58.118Z,3.60
2018-07-16T20:05:26.670Z,3.17
2018-07-16T20:07:55.190Z,3.07
2018-07-16T20:10:23.820Z,3.70
2018-07-16T20:12:52.295Z,3.50
2018-07-16T20:15:21.482Z,2.87
2018-07-16T20:17:49.979Z,4.10
2018-07-16T20:20:18.480Z,3.37
2018-07-16T20:22:46.941Z,3.80
2018-07-16T20:25:15.781Z,3.23
2018-07-16T20:27:44.258Z,3.73
2018-07-16T20:30:13.569Z,4.63
2018-07-16T20:32:42.026Z,4.10
2018-07-16T20:35:10.494Z,3.70
2018-07-16T20:37:38.946Z,3.80
2018-07-16T20:40:07.762Z,3.90
2018-07-16T20:42:36.217Z,4.47
2018-07-16T20:45:05.034Z,3.90
2018-07-16T20:47:33.482Z,3.90
2018-07-16T20:50:01.950Z,3.77
2018-07-16T20:52:30.478Z,4.40
2018-07-16T20:54:58.937Z,3.50
2018-07-16T20:57:27.382Z,4.10
2018-07-16T20:59:55.955Z,3.70
2018-07-16T21:02:24.402Z,3.90
2018-07-16T21:04:52.907Z,3.60
2018-07-16T21:07:21.649Z,3.70
2018-07-16T21:09:50.081Z,4.07
2018-07-16T21:12:18.600Z,3.70
2018-07-16T21:14:47.063Z,3.70
2018-07-16T21:17:15.572Z,3.30
2018-07-16T21:19:44.365Z,3.87
2018-07-16T21:22:12.834Z,4.30
2018-07-16T21:24:41.254Z,3.30
2018-07-16T21:27:09.721Z,4.00
2018-07-16T21:29:38.156Z,3.77
2018-07-16T21:32:06.675Z,3.70
2018-07-16T21:34:35.114Z,3.57
2018-07-16T21:37:03.610Z,3.73
2018-07-16T21:39:32.395Z,2.90
2018-07-16T21:42:00.863Z,4.40
2018-07-16T21:44:29.373Z,4.20
2018-07-16T21:46:57.847Z,4.60
2018-07-16T21:49:26.362Z,4.47
2018-07-16T21:51:55.080Z,3.90
2018-07-16T21:54:23.915Z,4.43
2018-07-16T21:56:52.407Z,4.50
2018-07-16T21:59:21.037Z,4.40
2018-07-16T22:01:49.525Z,4.30
2018-07-16T22:04:18.030Z,4.17
2018-07-16T22:06:46.755Z,4.20
2018-07-16T22:09:15.214Z,4.23
2018-07-16T22:11:43.732Z,4.60
2018-07-16T22:14:12.192Z,4.20
2018-07-16T22:16:40.702Z,3.70
2018-07-16T22:19:09.202Z,4.10
2018-07-16T22:21:37.647Z,4.40
2018-07-16T22:24:06.646Z,4.00
2018-07-16T22:26:37.957Z,3.70
2018-07-16T22:29:06.517Z,4.33
2018-07-16T22:31:35.009Z,4.30
2018-07-16T22:34:03.626Z,4.90
2018-07-16T22:36:32.727Z,4.20
2018-07-16T22:39:01.271Z,4.97
2018-07-16T22:41:30.058Z,4.87
2018-07-16T22:43:58.568Z,4.00
2018-07-16T22:46:27.029Z,4.47
2018-07-16T22:48:55.835Z,4.30
2018-07-16T22:51:24.609Z,4.70
2018-07-16T22:53:53.117Z,3.97
2018-07-16T22:56:21.882Z,4.23
2018-07-16T22:58:50.395Z,4.30
2018-07-16T23:01:18.885Z,4.60
2018-07-16T23:03:47.689Z,4.37
2018-07-16T23:06:16.444Z,4.07
2018-07-16T23:08:45.503Z,4.10
2018-07-16T23:11:14.312Z,4.27
2018-07-16T23:13:42.830Z,4.60
2018-07-16T23:16:11.295Z,4.50
2018-07-16T23:18:39.743Z,4.40
2018-07-16T23:21:08.238Z,4.83
2018-07-16T23:23:37.549Z,4.80
2018-07-16T23:26:06.095Z,4.57
2018-07-16T23:28:34.814Z,4.20
2018-07-16T23:31:03.551Z,4.67
2018-07-16T23:33:32.055Z,4.90
2018-07-16T23:36:00.915Z,5.00
2018-07-16T23:38:29.410Z,4.53
2018-07-16T23:40:57.897Z,4.57
2018-07-16T23:43:26.774Z,5.23
2018-07-16T23:45:55.257Z,5.33
2018-07-16T23:48:23.754Z,5.23
2018-07-16T23:50:52.204Z,4.67
2018-07-16T23:53:20.666Z,6.50
2018-07-16T23:55:49.181Z,4.70
2018-07-16T23:58:17.624Z,4.80
